sensor_id;sensor_type;location;lat;lon;timestamp;temperature;humidity
76878;DHT22;65843;50.692;12.844;2023-04-24T00:00:21;22.20;55.80
76878;DHT22;65843;50.692;12.844;2023-04-24T00:01:22;22.20;55.70
76878;DHT22;65843;50.692;12.844;2023-04-24T00:02:23;22.20;55.80
76878;DHT22;65843;50.692;12.844;2023-04-24T00:03:24;22.20;55.70
76878;DHT22;65843;50.692;12.844;2023-04-24T00:04:25;22.20;55.70
76878;DHT22;65843;50.692;12.844;2023-04-24T00:05:26;22.20;55.70
76878;DHT22;65843;50.692;12.844;2023-04-24T00:06:27;22.20;55.80
76878;DHT22;65843;50.692;12.844;2023-04-24T00:07:34;22.20;55.80
76878;DHT22;65843;50.692;12.844;2023-04-24T00:08:35;22.20;55.80
76878;DHT22;65843;50.692;12.844;2023-04-24T00:09:36;22.20;55.80
76878;DHT22;65843;50.692;12.844;2023-04-24T00:10:37;22.20;55.80
76878;DHT22;65843;50.692;12.844;2023-04-24T00:11:38;22.20;55.90
76878;DHT22;65843;50.692;12.844;2023-04-24T00:12:39;22.20;55.80
76878;DHT22;65843;50.692;12.844;2023-04-24T00:13:40;22.20;55.90
76878;DHT22;65843;50.692;12.844;2023-04-24T00:14:41;22.20;55.90
76878;DHT22;65843;50.692;12.844;2023-04-24T00:15:42;22.20;55.90
76878;DHT22;65843;50.692;12.844;2023-04-24T00:16:43;22.20;55.90
76878;DHT22;65843;50.692;12.844;2023-04-24T00:17:43;22.20;55.90
76878;DHT22;65843;50.692;12.844;2023-04-24T00:18:44;22.20;55.90
76878;DHT22;65843;50.692;12.844;2023-04-24T00:19:46;22.20;55.90
76878;DHT22;65843;50.692;12.844;2023-04-24T00:20:47;22.20;56.00
76878;DHT22;65843;50.692;12.844;2023-04-24T00:21:48;22.20;56.00
76878;DHT22;65843;50.692;12.844;2023-04-24T00:22:52;22.20;56.00
76878;DHT22;65843;50.692;12.844;2023-04-24T00:23:53;22.20;56.00
76878;DHT22;65843;50.692;12.844;2023-04-24T00:24:54;22.20;56.00
76878;DHT22;65843;50.692;12.844;2023-04-24T00:25:55;22.20;56.00
76878;DHT22;65843;50.692;12.844;2023-04-24T00:26:56;22.20;56.00
76878;DHT22;65843;50.692;12.844;2023-04-24T00:27:57;22.20;56.00
76878;DHT22;65843;50.692;12.844;2023-04-24T00:28:58;22.20;56.00
76878;DHT22;65843;50.692;12.844;2023-04-24T00:29:58;22.20;56.00
76878;DHT22;65843;50.692;12.844;2023-04-24T00:30:59;22.20;56.00
76878;DHT22;65843;50.692;12.844;2023-04-24T00:32:00;22.20;56.00
76878;DHT22;65843;50.692;12.844;2023-04-24T00:33:01;22.20;56.00
76878;DHT22;65843;50.692;12.844;2023-04-24T00:34:02;22.20;56.10
76878;DHT22;65843;50.692;12.844;2023-04-24T00:35:04;22.20;56.10
76878;DHT22;65843;50.692;12.844;2023-04-24T00:36:06;22.20;56.10
76878;DHT22;65843;50.692;12.844;2023-04-24T00:37:06;22.20;56.20
76878;DHT22;65843;50.692;12.844;2023-04-24T00:38:07;22.20;56.20
76878;DHT22;65843;50.692;12.844;2023-04-24T00:39:08;22.20;56.20
76878;DHT22;65843;50.692;12.844;2023-04-24T00:40:09;22.20;56.20
76878;DHT22;65843;50.692;12.844;2023-04-24T00:41:10;22.30;56.10
76878;DHT22;65843;50.692;12.844;2023-04-24T00:42:11;22.30;56.20
76878;DHT22;65843;50.692;12.844;2023-04-24T00:43:12;22.30;56.10
76878;DHT22;65843;50.692;12.844;2023-04-24T00:44:13;22.30;56.20
76878;DHT22;65843;50.692;12.844;2023-04-24T00:45:15;22.30;56.20
76878;DHT22;65843;50.692;12.844;2023-04-24T00:46:16;22.30;56.20
76878;DHT22;65843;50.692;12.844;2023-04-24T00:47:17;22.30;56.20
76878;DHT22;65843;50.692;12.844;2023-04-24T00:48:19;22.30;56.20
76878;DHT22;65843;50.692;12.844;2023-04-24T00:49:21;22.30;56.20
76878;DHT22;65843;50.692;12.844;2023-04-24T00:50:23;22.30;56.20
76878;DHT22;65843;50.692;12.844;2023-04-24T00:51:24;22.30;56.20
76878;DHT22;65843;50.692;12.844;2023-04-24T00:52:25;22.30;56.20
76878;DHT22;65843;50.692;12.844;2023-04-24T00:53:26;22.30;56.20
76878;DHT22;65843;50.692;12.844;2023-04-24T00:54:27;22.30;56.20
76878;DHT22;65843;50.692;12.844;2023-04-24T00:55:28;22.30;56.30
76878;DHT22;65843;50.692;12.844;2023-04-24T00:56:29;22.30;56.30
76878;DHT22;65843;50.692;12.844;2023-04-24T00:57:30;22.30;56.20
76878;DHT22;65843;50.692;12.844;2023-04-24T00:58:31;22.30;56.30
76878;DHT22;65843;50.692;12.844;2023-04-24T00:59:32;22.30;56.30
76878;DHT22;65843;50.692;12.844;2023-04-24T01:00:33;22.30;56.30
76878;DHT22;65843;50.692;12.844;2023-04-24T01:01:34;22.30;56.30
76878;DHT22;65843;50.692;12.844;2023-04-24T01:02:37;22.30;56.30
76878;DHT22;65843;50.692;12.844;2023-04-24T01:03:40;22.30;56.40
76878;DHT22;65843;50.692;12.844;2023-04-24T01:04:41;22.30;56.20
76878;DHT22;65843;50.692;12.844;2023-04-24T01:05:43;22.30;56.30
76878;DHT22;65843;50.692;12.844;2023-04-24T01:06:44;22.30;56.30
76878;DHT22;65843;50.692;12.844;2023-04-24T01:07:46;22.30;56.30
76878;DHT22;65843;50.692;12.844;2023-04-24T01:08:48;22.30;56.30
76878;DHT22;65843;50.692;12.844;2023-04-24T01:09:50;22.30;56.30
76878;DHT22;65843;50.692;12.844;2023-04-24T01:10:52;22.30;56.30
76878;DHT22;65843;50.692;12.844;2023-04-24T01:11:53;22.30;56.40
76878;DHT22;65843;50.692;12.844;2023-04-24T01:12:54;22.30;56.30
76878;DHT22;65843;50.692;12.844;2023-04-24T01:13:56;22.30;56.30
76878;DHT22;65843;50.692;12.844;2023-04-24T01:14:57;22.30;56.30
76878;DHT22;65843;50.692;12.844;2023-04-24T01:15:58;22.30;56.30
76878;DHT22;65843;50.692;12.844;2023-04-24T01:16:59;22.30;56.30
76878;DHT22;65843;50.692;12.844;2023-04-24T01:18:00;22.30;56.30
76878;DHT22;65843;50.692;12.844;2023-04-24T01:19:02;22.30;56.30
76878;DHT22;65843;50.692;12.844;2023-04-24T01:20:03;22.30;56.30
76878;DHT22;65843;50.692;12.844;2023-04-24T01:21:06;22.30;56.30
76878;DHT22;65843;50.692;12.844;2023-04-24T01:22:15;22.30;56.30
76878;DHT22;65843;50.692;12.844;2023-04-24T01:23:17;22.30;56.30
76878;DHT22;65843;50.692;12.844;2023-04-24T01:24:18;22.30;56.30
76878;DHT22;65843;50.692;12.844;2023-04-24T01:25:20;22.30;56.30
76878;DHT22;65843;50.692;12.844;2023-04-24T01:26:21;22.30;56.30
76878;DHT22;65843;50.692;12.844;2023-04-24T01:27:22;22.30;56.30
76878;DHT22;65843;50.692;12.844;2023-04-24T01:28:22;22.30;56.30
76878;DHT22;65843;50.692;12.844;2023-04-24T01:29:23;22.30;56.30
76878;DHT22;65843;50.692;12.844;2023-04-24T01:30:25;22.30;56.30
76878;DHT22;65843;50.692;12.844;2023-04-24T01:31:26;22.30;56.30
76878;DHT22;65843;50.692;12.844;2023-04-24T01:32:27;22.30;56.30
76878;DHT22;65843;50.692;12.844;2023-04-24T01:33:28;22.30;56.30
76878;DHT22;65843;50.692;12.844;2023-04-24T01:34:29;22.30;56.30
76878;DHT22;65843;50.692;12.844;2023-04-24T01:35:31;22.30;56.30
76878;DHT22;65843;50.692;12.844;2023-04-24T01:36:32;22.30;56.30
76878;DHT22;65843;50.692;12.844;2023-04-24T01:37:33;22.30;56.40
76878;DHT22;65843;50.692;12.844;2023-04-24T01:38:34;22.30;56.40
76878;DHT22;65843;50.692;12.844;2023-04-24T01:39:35;22.30;56.40
76878;DHT22;65843;50.692;12.844;2023-04-24T01:40:36;22.30;56.30
76878;DHT22;65843;50.692;12.844;2023-04-24T01:41:37;22.30;56.30
76878;DHT22;65843;50.692;12.844;2023-04-24T01:42:39;22.30;56.40
76878;DHT22;65843;50.692;12.844;2023-04-24T01:43:41;22.30;56.40
76878;DHT22;65843;50.692;12.844;2023-04-24T01:44:42;22.30;56.40
76878;DHT22;65843;50.692;12.844;2023-04-24T01:45:43;22.30;56.40
76878;DHT22;65843;50.692;12.844;2023-04-24T01:46:44;22.30;56.40
76878;DHT22;65843;50.692;12.844;2023-04-24T01:47:45;22.30;56.40
76878;DHT22;65843;50.692;12.844;2023-04-24T01:48:46;22.30;56.40
76878;DHT22;65843;50.692;12.844;2023-04-24T01:49:47;22.30;56.40
76878;DHT22;65843;50.692;12.844;2023-04-24T01:50:48;22.30;56.50
76878;DHT22;65843;50.692;12.844;2023-04-24T01:51:49;22.30;56.40
76878;DHT22;65843;50.692;12.844;2023-04-24T01:52:50;22.30;56.40
76878;DHT22;65843;50.692;12.844;2023-04-24T01:53:51;22.30;56.40
76878;DHT22;65843;50.692;12.844;2023-04-24T01:54:52;22.30;56.40
76878;DHT22;65843;50.692;12.844;2023-04-24T01:55:53;22.30;56.40
76878;DHT22;65843;50.692;12.844;2023-04-24T01:56:54;22.30;56.40
76878;DHT22;65843;50.692;12.844;2023-04-24T01:57:55;22.30;56.40
76878;DHT22;65843;50.692;12.844;2023-04-24T01:58:57;22.30;56.40
76878;DHT22;65843;50.692;12.844;2023-04-24T01:59:58;22.30;56.40
76878;DHT22;65843;50.692;12.844;2023-04-24T02:00:59;22.30;56.40
76878;DHT22;65843;50.692;12.844;2023-04-24T02:02:00;22.30;56.50
76878;DHT22;65843;50.692;12.844;2023-04-24T02:03:01;22.30;56.40
76878;DHT22;65843;50.692;12.844;2023-04-24T02:04:03;22.30;56.40
76878;DHT22;65843;50.692;12.844;2023-04-24T02:05:05;22.30;56.40
76878;DHT22;65843;50.692;12.844;2023-04-24T02:06:06;22.30;56.40
76878;DHT22;65843;50.692;12.844;2023-04-24T02:07:07;22.30;56.40
76878;DHT22;65843;50.692;12.844;2023-04-24T02:08:08;22.30;56.40
76878;DHT22;65843;50.692;12.844;2023-04-24T02:09:09;22.30;56.40
76878;DHT22;65843;50.692;12.844;2023-04-24T02:10:11;22.30;56.40
76878;DHT22;65843;50.692;12.844;2023-04-24T02:11:12;22.30;56.40
76878;DHT22;65843;50.692;12.844;2023-04-24T02:12:14;22.30;56.50
76878;DHT22;65843;50.692;12.844;2023-04-24T02:13:15;22.30;56.40
76878;DHT22;65843;50.692;12.844;2023-04-24T02:14:15;22.30;56.40
76878;DHT22;65843;50.692;12.844;2023-04-24T02:15:16;22.30;56.50
76878;DHT22;65843;50.692;12.844;2023-04-24T02:16:18;22.30;56.50
76878;DHT22;65843;50.692;12.844;2023-04-24T02:17:19;22.30;56.50
76878;DHT22;65843;50.692;12.844;2023-04-24T02:18:20;22.30;56.40
76878;DHT22;65843;50.692;12.844;2023-04-24T02:19:23;22.30;56.40
76878;DHT22;65843;50.692;12.844;2023-04-24T02:20:24;22.30;56.50
76878;DHT22;65843;50.692;12.844;2023-04-24T02:21:25;22.30;56.40
76878;DHT22;65843;50.692;12.844;2023-04-24T02:22:26;22.30;56.40
76878;DHT22;65843;50.692;12.844;2023-04-24T02:23:27;22.30;56.50
76878;DHT22;65843;50.692;12.844;2023-04-24T02:24:27;22.30;56.50
76878;DHT22;65843;50.692;12.844;2023-04-24T02:25:28;22.30;56.40
76878;DHT22;65843;50.692;12.844;2023-04-24T02:26:29;22.30;56.40
76878;DHT22;65843;50.692;12.844;2023-04-24T02:27:32;22.30;56.50
76878;DHT22;65843;50.692;12.844;2023-04-24T02:28:33;22.30;56.50
76878;DHT22;65843;50.692;12.844;2023-04-24T02:29:34;22.30;56.50
76878;DHT22;65843;50.692;12.844;2023-04-24T02:30:35;22.30;56.50
76878;DHT22;65843;50.692;12.844;2023-04-24T02:31:36;22.30;56.50
76878;DHT22;65843;50.692;12.844;2023-04-24T02:32:36;22.30;56.50
76878;DHT22;65843;50.692;12.844;2023-04-24T02:33:37;22.30;56.50
76878;DHT22;65843;50.692;12.844;2023-04-24T02:34:38;22.30;56.50
76878;DHT22;65843;50.692;12.844;2023-04-24T02:35:39;22.30;56.50
76878;DHT22;65843;50.692;12.844;2023-04-24T02:36:40;22.30;56.50
76878;DHT22;65843;50.692;12.844;2023-04-24T02:37:41;22.30;56.50
76878;DHT22;65843;50.692;12.844;2023-04-24T02:38:42;22.30;56.50
76878;DHT22;65843;50.692;12.844;2023-04-24T02:39:43;22.30;56.50
76878;DHT22;65843;50.692;12.844;2023-04-24T02:40:44;22.30;56.50
76878;DHT22;65843;50.692;12.844;2023-04-24T02:41:45;22.30;56.50
76878;DHT22;65843;50.692;12.844;2023-04-24T02:42:46;22.30;56.50
76878;DHT22;65843;50.692;12.844;2023-04-24T02:43:47;22.30;56.50
76878;DHT22;65843;50.692;12.844;2023-04-24T02:44:48;22.30;56.50
76878;DHT22;65843;50.692;12.844;2023-04-24T02:45:48;22.30;56.50
76878;DHT22;65843;50.692;12.844;2023-04-24T02:46:50;22.30;56.50
76878;DHT22;65843;50.692;12.844;2023-04-24T02:47:51;22.30;56.50
76878;DHT22;65843;50.692;12.844;2023-04-24T02:48:52;22.30;56.50
76878;DHT22;65843;50.692;12.844;2023-04-24T02:49:52;22.30;56.40
76878;DHT22;65843;50.692;12.844;2023-04-24T02:50:53;22.30;56.50
76878;DHT22;65843;50.692;12.844;2023-04-24T02:51:54;22.30;56.50
76878;DHT22;65843;50.692;12.844;2023-04-24T02:52:55;22.30;56.50
76878;DHT22;65843;50.692;12.844;2023-04-24T02:53:56;22.30;56.50
76878;DHT22;65843;50.692;12.844;2023-04-24T02:54:57;22.30;56.40
76878;DHT22;65843;50.692;12.844;2023-04-24T02:55:58;22.30;56.50
76878;DHT22;65843;50.692;12.844;2023-04-24T02:56:59;22.30;56.50
76878;DHT22;65843;50.692;12.844;2023-04-24T02:58:01;22.30;56.50
76878;DHT22;65843;50.692;12.844;2023-04-24T02:59:02;22.30;56.50
76878;DHT22;65843;50.692;12.844;2023-04-24T03:00:03;22.30;56.50
76878;DHT22;65843;50.692;12.844;2023-04-24T03:01:07;22.30;56.50
76878;DHT22;65843;50.692;12.844;2023-04-24T03:02:10;22.30;56.50
76878;DHT22;65843;50.692;12.844;2023-04-24T03:03:11;22.30;56.50
76878;DHT22;65843;50.692;12.844;2023-04-24T03:04:12;22.30;56.50
76878;DHT22;65843;50.692;12.844;2023-04-24T03:05:13;22.30;56.50
76878;DHT22;65843;50.692;12.844;2023-04-24T03:06:14;22.30;56.50
76878;DHT22;65843;50.692;12.844;2023-04-24T03:07:15;22.30;56.50
76878;DHT22;65843;50.692;12.844;2023-04-24T03:08:16;22.30;56.50
76878;DHT22;65843;50.692;12.844;2023-04-24T03:09:18;22.30;56.50
76878;DHT22;65843;50.692;12.844;2023-04-24T03:10:19;22.30;56.60
76878;DHT22;65843;50.692;12.844;2023-04-24T03:11:20;22.30;56.60
76878;DHT22;65843;50.692;12.844;2023-04-24T03:12:21;22.30;56.50
76878;DHT22;65843;50.692;12.844;2023-04-24T03:13:24;22.30;56.60
76878;DHT22;65843;50.692;12.844;2023-04-24T03:14:25;22.30;56.50
76878;DHT22;65843;50.692;12.844;2023-04-24T03:15:26;22.30;56.60
76878;DHT22;65843;50.692;12.844;2023-04-24T03:16:27;22.30;56.60
76878;DHT22;65843;50.692;12.844;2023-04-24T03:17:28;22.30;56.60
76878;DHT22;65843;50.692;12.844;2023-04-24T03:18:28;22.30;56.60
76878;DHT22;65843;50.692;12.844;2023-04-24T03:19:30;22.30;56.60
76878;DHT22;65843;50.692;12.844;2023-04-24T03:20:31;22.30;56.60
76878;DHT22;65843;50.692;12.844;2023-04-24T03:21:31;22.30;56.60
76878;DHT22;65843;50.692;12.844;2023-04-24T03:22:32;22.30;56.60
76878;DHT22;65843;50.692;12.844;2023-04-24T03:23:34;22.30;56.60
76878;DHT22;65843;50.692;12.844;2023-04-24T03:24:35;22.30;56.60
76878;DHT22;65843;50.692;12.844;2023-04-24T03:25:36;22.30;56.60
76878;DHT22;65843;50.692;12.844;2023-04-24T03:26:37;22.30;56.60
76878;DHT22;65843;50.692;12.844;2023-04-24T03:27:38;22.30;56.60
76878;DHT22;65843;50.692;12.844;2023-04-24T03:28:39;22.30;56.60
76878;DHT22;65843;50.692;12.844;2023-04-24T03:29:40;22.30;56.70
76878;DHT22;65843;50.692;12.844;2023-04-24T03:30:41;22.30;56.60
76878;DHT22;65843;50.692;12.844;2023-04-24T03:31:42;22.30;56.60
76878;DHT22;65843;50.692;12.844;2023-04-24T03:32:43;22.30;56.60
76878;DHT22;65843;50.692;12.844;2023-04-24T03:33:44;22.30;56.70
76878;DHT22;65843;50.692;12.844;2023-04-24T03:34:45;22.30;56.70
76878;DHT22;65843;50.692;12.844;2023-04-24T03:35:46;22.30;56.60
76878;DHT22;65843;50.692;12.844;2023-04-24T03:36:47;22.30;56.60
76878;DHT22;65843;50.692;12.844;2023-04-24T03:37:48;22.30;56.70
76878;DHT22;65843;50.692;12.844;2023-04-24T03:38:49;22.30;56.60
76878;DHT22;65843;50.692;12.844;2023-04-24T03:39:50;22.30;56.60
76878;DHT22;65843;50.692;12.844;2023-04-24T03:40:51;22.30;56.70
76878;DHT22;65843;50.692;12.844;2023-04-24T03:41:52;22.30;56.70
76878;DHT22;65843;50.692;12.844;2023-04-24T03:42:53;22.30;56.70
76878;DHT22;65843;50.692;12.844;2023-04-24T03:43:54;22.30;56.70
76878;DHT22;65843;50.692;12.844;2023-04-24T03:44:54;22.30;56.60
76878;DHT22;65843;50.692;12.844;2023-04-24T03:45:55;22.30;56.60
76878;DHT22;65843;50.692;12.844;2023-04-24T03:46:57;22.30;56.70
76878;DHT22;65843;50.692;12.844;2023-04-24T03:47:58;22.30;56.60
76878;DHT22;65843;50.692;12.844;2023-04-24T03:48:59;22.30;56.60
76878;DHT22;65843;50.692;12.844;2023-04-24T03:50:00;22.40;56.60
76878;DHT22;65843;50.692;12.844;2023-04-24T03:51:01;22.30;56.60
76878;DHT22;65843;50.692;12.844;2023-04-24T03:52:02;22.30;56.60
76878;DHT22;65843;50.692;12.844;2023-04-24T03:53:03;22.30;56.60
76878;DHT22;65843;50.692;12.844;2023-04-24T03:54:04;22.30;56.50
76878;DHT22;65843;50.692;12.844;2023-04-24T03:55:05;22.30;56.50
76878;DHT22;65843;50.692;12.844;2023-04-24T03:56:07;22.30;56.50
76878;DHT22;65843;50.692;12.844;2023-04-24T03:57:08;22.30;56.50
76878;DHT22;65843;50.692;12.844;2023-04-24T03:58:08;22.30;56.50
76878;DHT22;65843;50.692;12.844;2023-04-24T03:59:09;22.30;56.50
76878;DHT22;65843;50.692;12.844;2023-04-24T04:00:10;22.30;56.50
76878;DHT22;65843;50.692;12.844;2023-04-24T04:01:12;22.30;56.50
76878;DHT22;65843;50.692;12.844;2023-04-24T04:02:13;22.30;56.50
76878;DHT22;65843;50.692;12.844;2023-04-24T04:03:14;22.30;56.50
76878;DHT22;65843;50.692;12.844;2023-04-24T04:04:15;22.30;56.50
76878;DHT22;65843;50.692;12.844;2023-04-24T04:05:16;22.30;56.50
76878;DHT22;65843;50.692;12.844;2023-04-24T04:06:17;22.30;56.50
76878;DHT22;65843;50.692;12.844;2023-04-24T04:07:20;22.30;56.50
76878;DHT22;65843;50.692;12.844;2023-04-24T04:08:21;22.30;56.50
76878;DHT22;65843;50.692;12.844;2023-04-24T04:09:22;22.30;56.50
76878;DHT22;65843;50.692;12.844;2023-04-24T04:10:23;22.30;56.50
76878;DHT22;65843;50.692;12.844;2023-04-24T04:11:24;22.30;56.50
76878;DHT22;65843;50.692;12.844;2023-04-24T04:12:25;22.30;56.50
76878;DHT22;65843;50.692;12.844;2023-04-24T04:13:26;22.20;56.50
76878;DHT22;65843;50.692;12.844;2023-04-24T04:14:27;22.30;56.40
76878;DHT22;65843;50.692;12.844;2023-04-24T04:15:29;22.20;56.40
76878;DHT22;65843;50.692;12.844;2023-04-24T04:16:29;22.20;56.40
76878;DHT22;65843;50.692;12.844;2023-04-24T04:17:30;22.20;56.40
76878;DHT22;65843;50.692;12.844;2023-04-24T04:18:31;22.20;56.50
76878;DHT22;65843;50.692;12.844;2023-04-24T04:19:32;22.20;56.50
76878;DHT22;65843;50.692;12.844;2023-04-24T04:20:33;22.20;56.50
76878;DHT22;65843;50.692;12.844;2023-04-24T04:21:34;22.20;56.50
76878;DHT22;65843;50.692;12.844;2023-04-24T04:22:35;22.20;56.40
76878;DHT22;65843;50.692;12.844;2023-04-24T04:23:37;22.20;56.30
76878;DHT22;65843;50.692;12.844;2023-04-24T04:24:38;22.20;56.20
76878;DHT22;65843;50.692;12.844;2023-04-24T04:25:41;22.20;56.20
76878;DHT22;65843;50.692;12.844;2023-04-24T04:26:42;22.20;56.10
76878;DHT22;65843;50.692;12.844;2023-04-24T04:27:47;22.20;56.10
76878;DHT22;65843;50.692;12.844;2023-04-24T04:28:49;22.20;56.00
76878;DHT22;65843;50.692;12.844;2023-04-24T04:29:50;22.20;56.00
76878;DHT22;65843;50.692;12.844;2023-04-24T04:30:52;22.10;56.00
76878;DHT22;65843;50.692;12.844;2023-04-24T04:31:55;22.10;56.10
76878;DHT22;65843;50.692;12.844;2023-04-24T04:32:56;22.10;56.10
76878;DHT22;65843;50.692;12.844;2023-04-24T04:33:57;22.10;56.20
76878;DHT22;65843;50.692;12.844;2023-04-24T04:34:59;22.10;56.20
76878;DHT22;65843;50.692;12.844;2023-04-24T04:36:03;22.10;56.20
76878;DHT22;65843;50.692;12.844;2023-04-24T04:37:04;22.10;56.30
76878;DHT22;65843;50.692;12.844;2023-04-24T04:38:06;22.20;56.30
76878;DHT22;65843;50.692;12.844;2023-04-24T04:39:08;22.20;56.30
76878;DHT22;65843;50.692;12.844;2023-04-24T04:40:09;22.20;56.30
76878;DHT22;65843;50.692;12.844;2023-04-24T04:41:12;22.20;56.30
76878;DHT22;65843;50.692;12.844;2023-04-24T04:42:13;22.20;56.20
76878;DHT22;65843;50.692;12.844;2023-04-24T04:43:14;22.20;56.20
76878;DHT22;65843;50.692;12.844;2023-04-24T04:44:15;22.20;56.10
76878;DHT22;65843;50.692;12.844;2023-04-24T04:45:16;22.20;55.90
76878;DHT22;65843;50.692;12.844;2023-04-24T04:46:17;22.20;55.80
76878;DHT22;65843;50.692;12.844;2023-04-24T04:47:20;22.20;55.80
76878;DHT22;65843;50.692;12.844;2023-04-24T04:48:22;22.20;55.70
76878;DHT22;65843;50.692;12.844;2023-04-24T04:49:23;22.20;55.70
76878;DHT22;65843;50.692;12.844;2023-04-24T04:50:24;22.20;55.70
76878;DHT22;65843;50.692;12.844;2023-04-24T04:51:25;22.20;55.70
76878;DHT22;65843;50.692;12.844;2023-04-24T04:52:26;22.20;55.50
76878;DHT22;65843;50.692;12.844;2023-04-24T04:53:27;22.20;55.50
76878;DHT22;65843;50.692;12.844;2023-04-24T04:54:28;22.20;55.50
76878;DHT22;65843;50.692;12.844;2023-04-24T04:55:29;22.10;55.40
76878;DHT22;65843;50.692;12.844;2023-04-24T04:56:30;22.10;55.20
76878;DHT22;65843;50.692;12.844;2023-04-24T04:57:31;22.10;55.20
76878;DHT22;65843;50.692;12.844;2023-04-24T04:58:32;22.10;55.10
76878;DHT22;65843;50.692;12.844;2023-04-24T04:59:33;22.10;55.00
76878;DHT22;65843;50.692;12.844;2023-04-24T05:00:34;22.10;54.90
76878;DHT22;65843;50.692;12.844;2023-04-24T05:01:38;22.10;54.80
76878;DHT22;65843;50.692;12.844;2023-04-24T05:02:39;22.10;54.70
76878;DHT22;65843;50.692;12.844;2023-04-24T05:03:40;22.10;54.70
76878;DHT22;65843;50.692;12.844;2023-04-24T05:04:41;22.10;54.60
76878;DHT22;65843;50.692;12.844;2023-04-24T05:05:42;22.10;54.60
76878;DHT22;65843;50.692;12.844;2023-04-24T05:06:43;22.00;54.50
76878;DHT22;65843;50.692;12.844;2023-04-24T05:07:44;22.00;54.40
76878;DHT22;65843;50.692;12.844;2023-04-24T05:08:45;22.00;54.40
76878;DHT22;65843;50.692;12.844;2023-04-24T05:09:46;22.00;54.40
76878;DHT22;65843;50.692;12.844;2023-04-24T05:10:47;22.00;54.30
76878;DHT22;65843;50.692;12.844;2023-04-24T05:11:48;22.00;54.20
76878;DHT22;65843;50.692;12.844;2023-04-24T05:12:48;22.00;54.10
76878;DHT22;65843;50.692;12.844;2023-04-24T05:13:50;22.00;54.00
76878;DHT22;65843;50.692;12.844;2023-04-24T05:14:51;22.00;54.00
76878;DHT22;65843;50.692;12.844;2023-04-24T05:15:52;22.00;53.90
76878;DHT22;65843;50.692;12.844;2023-04-24T05:16:53;21.90;53.90
76878;DHT22;65843;50.692;12.844;2023-04-24T05:17:54;21.90;53.80
76878;DHT22;65843;50.692;12.844;2023-04-24T05:18:55;21.90;53.90
76878;DHT22;65843;50.692;12.844;2023-04-24T05:19:56;21.90;53.80
76878;DHT22;65843;50.692;12.844;2023-04-24T05:20:57;21.90;53.70
76878;DHT22;65843;50.692;12.844;2023-04-24T05:21:58;21.90;53.60
76878;DHT22;65843;50.692;12.844;2023-04-24T05:22:59;21.90;53.60
76878;DHT22;65843;50.692;12.844;2023-04-24T05:24:00;21.90;53.60
76878;DHT22;65843;50.692;12.844;2023-04-24T05:25:01;21.90;53.50
76878;DHT22;65843;50.692;12.844;2023-04-24T05:26:03;21.90;53.50
76878;DHT22;65843;50.692;12.844;2023-04-24T05:27:04;21.80;53.50
76878;DHT22;65843;50.692;12.844;2023-04-24T05:28:05;21.80;53.50
76878;DHT22;65843;50.692;12.844;2023-04-24T05:29:06;21.80;53.40
76878;DHT22;65843;50.692;12.844;2023-04-24T05:30:07;21.80;53.40
76878;DHT22;65843;50.692;12.844;2023-04-24T05:31:08;21.70;53.30
76878;DHT22;65843;50.692;12.844;2023-04-24T05:32:09;21.70;53.20
76878;DHT22;65843;50.692;12.844;2023-04-24T05:33:10;21.70;53.10
76878;DHT22;65843;50.692;12.844;2023-04-24T05:34:11;21.70;53.00
76878;DHT22;65843;50.692;12.844;2023-04-24T05:35:12;21.70;53.00
76878;DHT22;65843;50.692;12.844;2023-04-24T05:36:13;21.70;52.90
76878;DHT22;65843;50.692;12.844;2023-04-24T05:37:14;21.60;52.80
76878;DHT22;65843;50.692;12.844;2023-04-24T05:38:15;21.50;52.70
76878;DHT22;65843;50.692;12.844;2023-04-24T05:39:18;21.50;52.70
76878;DHT22;65843;50.692;12.844;2023-04-24T05:40:20;21.50;52.60
76878;DHT22;65843;50.692;12.844;2023-04-24T05:41:21;21.40;52.60
76878;DHT22;65843;50.692;12.844;2023-04-24T05:42:23;21.40;52.50
76878;DHT22;65843;50.692;12.844;2023-04-24T05:43:24;21.40;52.50
76878;DHT22;65843;50.692;12.844;2023-04-24T05:44:25;21.30;52.20
76878;DHT22;65843;50.692;12.844;2023-04-24T05:45:26;21.30;52.20
76878;DHT22;65843;50.692;12.844;2023-04-24T05:46:27;21.20;52.30
76878;DHT22;65843;50.692;12.844;2023-04-24T05:47:28;21.20;52.20
76878;DHT22;65843;50.692;12.844;2023-04-24T05:48:29;21.20;52.20
76878;DHT22;65843;50.692;12.844;2023-04-24T05:49:30;21.10;52.20
76878;DHT22;65843;50.692;12.844;2023-04-24T05:50:31;21.10;52.30
76878;DHT22;65843;50.692;12.844;2023-04-24T05:51:32;21.10;52.30
76878;DHT22;65843;50.692;12.844;2023-04-24T05:52:33;21.20;52.40
76878;DHT22;65843;50.692;12.844;2023-04-24T05:53:34;21.20;52.40
76878;DHT22;65843;50.692;12.844;2023-04-24T05:54:35;21.20;52.50
76878;DHT22;65843;50.692;12.844;2023-04-24T05:55:36;21.30;52.30
76878;DHT22;65843;50.692;12.844;2023-04-24T05:56:37;21.30;52.40
76878;DHT22;65843;50.692;12.844;2023-04-24T05:57:38;21.30;52.40
76878;DHT22;65843;50.692;12.844;2023-04-24T05:58:39;21.30;52.30
76878;DHT22;65843;50.692;12.844;2023-04-24T05:59:41;21.40;52.30
76878;DHT22;65843;50.692;12.844;2023-04-24T06:00:42;21.40;52.30
76878;DHT22;65843;50.692;12.844;2023-04-24T06:01:45;21.40;52.20
76878;DHT22;65843;50.692;12.844;2023-04-24T06:02:46;21.40;52.10
76878;DHT22;65843;50.692;12.844;2023-04-24T06:03:48;21.40;52.10
76878;DHT22;65843;50.692;12.844;2023-04-24T06:04:49;21.40;52.10
76878;DHT22;65843;50.692;12.844;2023-04-24T06:05:50;21.40;52.00
76878;DHT22;65843;50.692;12.844;2023-04-24T06:06:51;21.40;52.00
76878;DHT22;65843;50.692;12.844;2023-04-24T06:07:56;21.50;52.00
76878;DHT22;65843;50.692;12.844;2023-04-24T06:08:57;21.40;51.90
76878;DHT22;65843;50.692;12.844;2023-04-24T06:09:59;21.40;51.80
76878;DHT22;65843;50.692;12.844;2023-04-24T06:11:00;21.40;51.80
76878;DHT22;65843;50.692;12.844;2023-04-24T06:12:01;21.40;51.80
76878;DHT22;65843;50.692;12.844;2023-04-24T06:13:02;21.50;51.80
76878;DHT22;65843;50.692;12.844;2023-04-24T06:14:03;21.40;51.70
76878;DHT22;65843;50.692;12.844;2023-04-24T06:15:04;21.50;51.80
76878;DHT22;65843;50.692;12.844;2023-04-24T06:16:05;21.40;51.70
76878;DHT22;65843;50.692;12.844;2023-04-24T06:17:06;21.40;51.60
76878;DHT22;65843;50.692;12.844;2023-04-24T06:18:07;21.40;51.60
76878;DHT22;65843;50.692;12.844;2023-04-24T06:19:08;21.40;51.60
76878;DHT22;65843;50.692;12.844;2023-04-24T06:20:09;21.40;51.60